LGZA/ZTH METAR and TAF weather

Enter ICAO airport designator
Station Type Date Time Source
LGZA METAR 2019/02/16 17:50 UTC NOAA

LGZA 161750Z 36007KT 9999 FEW025 10/01 Q1024


Station Type Date Time Source
LGZA Decoded METAR 2019/02/16 17:50 UTC NOAA

Zakinthos Airport , Greece (LGZA) 37-45N 020-53E
Feb 16, 2019 - 12:50 PM EST / 2019.02.16 1750 UTC
Wind: from the N (360 degrees) at 8 MPH (7 KT):0
Visibility: greater than 7 mile(s):0
Sky conditions: mostly clear
Temperature: 50 F (10 C)
Dew Point: 33 F (1 C)
Relative Humidity: 53%
Pressure (altimeter): 30.24 in. Hg (1024 hPa)
ob: LGZA 161750Z 36007KT 9999 FEW025 10/01 Q1024
cycle: 18

Station Type Date Time Source
LGZA TAF 2011/11/25 15:06 UTC NOAA

TAF TAF LGZA 251400Z 2515/2603 02012KT 9999 FEW025 SCT035 BKN080 PROB30
TEMPO 2518/2603 8000 RA PROB30 2522/2603 5000 BR SCT010


Example: see airport list